サル島 の空港の天気 - METARとTAF

アミルカル・カブラル国際空港 ( GVAC / SID ) - カーボベルデ サル島
飛行場実況気象(Metar)
観測時間12/10 04:00 CVT (12/10 05:00 UTC)
風向・風速北東 4m/s
視程10km以上
天気現象
少しの雲 雲底高度 430m
気温22℃
湿度83%
気圧1017hPa
METARGVAC 100500Z 04007KT 9999 FEW014 22/19 Q1017 NOSIG
過去の天気等 Google飛行場航空写真 Wunderground天気予報

過去48時間のMETAR

飛行場予報(TAF)
発表時間: 12/10 04:00 CVT (12/10 05:00 UTC)
予報対象時間: 10日5時 CVT ~ 11日11時 CVT
風向・風速東北東 6m/s
視程10km以上
なし
TAF GVAC 100500Z 1006/1112 07012KT CAVOK